sensor_id;sensor_type;location;lat;lon;timestamp;P1;durP1;ratioP1;P2;durP2;ratioP2
18899;SDS011;9582;52.018;6.306;2023-04-25T00:01:44;8.73;;;3.03;;
18899;SDS011;9582;52.018;6.306;2023-04-25T00:04:11;13.63;;;3.10;;
18899;SDS011;9582;52.018;6.306;2023-04-25T00:06:38;12.97;;;3.17;;
18899;SDS011;9582;52.018;6.306;2023-04-25T00:09:06;14.63;;;3.93;;
18899;SDS011;9582;52.018;6.306;2023-04-25T00:11:34;10.77;;;3.13;;
18899;SDS011;9582;52.018;6.306;2023-04-25T00:14:00;10.30;;;3.33;;
18899;SDS011;9582;52.018;6.306;2023-04-25T00:16:27;8.60;;;2.77;;
18899;SDS011;9582;52.018;6.306;2023-04-25T00:18:55;8.90;;;3.03;;
18899;SDS011;9582;52.018;6.306;2023-04-25T00:21:24;8.80;;;2.97;;
18899;SDS011;9582;52.018;6.306;2023-04-25T00:23:50;13.10;;;3.43;;
18899;SDS011;9582;52.018;6.306;2023-04-25T00:26:20;11.63;;;2.90;;
18899;SDS011;9582;52.018;6.306;2023-04-25T00:28:47;9.87;;;3.27;;
18899;SDS011;9582;52.018;6.306;2023-04-25T00:31:14;10.93;;;3.43;;
18899;SDS011;9582;52.018;6.306;2023-04-25T00:33:40;7.20;;;3.23;;
18899;SDS011;9582;52.018;6.306;2023-04-25T00:36:07;6.27;;;3.40;;
18899;SDS011;9582;52.018;6.306;2023-04-25T00:38:34;9.40;;;3.10;;
18899;SDS011;9582;52.018;6.306;2023-04-25T00:41:01;10.40;;;3.10;;
18899;SDS011;9582;52.018;6.306;2023-04-25T00:43:29;12.13;;;4.13;;
18899;SDS011;9582;52.018;6.306;2023-04-25T00:45:57;12.33;;;3.13;;
18899;SDS011;9582;52.018;6.306;2023-04-25T00:48:26;8.40;;;3.00;;
18899;SDS011;9582;52.018;6.306;2023-04-25T00:50:53;7.77;;;3.03;;
18899;SDS011;9582;52.018;6.306;2023-04-25T00:53:20;11.47;;;3.73;;
18899;SDS011;9582;52.018;6.306;2023-04-25T00:55:47;13.45;;;4.28;;
18899;SDS011;9582;52.018;6.306;2023-04-25T00:58:16;9.83;;;3.50;;
18899;SDS011;9582;52.018;6.306;2023-04-25T01:00:44;8.37;;;3.00;;
18899;SDS011;9582;52.018;6.306;2023-04-25T01:03:11;7.90;;;2.97;;
18899;SDS011;9582;52.018;6.306;2023-04-25T01:05:39;13.97;;;3.30;;
18899;SDS011;9582;52.018;6.306;2023-04-25T01:08:06;10.83;;;3.30;;
18899;SDS011;9582;52.018;6.306;2023-04-25T01:10:33;14.37;;;3.80;;
18899;SDS011;9582;52.018;6.306;2023-04-25T01:12:59;10.90;;;3.50;;
18899;SDS011;9582;52.018;6.306;2023-04-25T01:15:26;14.50;;;3.57;;
18899;SDS011;9582;52.018;6.306;2023-04-25T01:17:54;13.40;;;3.70;;
18899;SDS011;9582;52.018;6.306;2023-04-25T01:20:21;12.13;;;3.70;;
18899;SDS011;9582;52.018;6.306;2023-04-25T01:22:51;9.27;;;3.90;;
18899;SDS011;9582;52.018;6.306;2023-04-25T01:25:18;10.27;;;3.30;;
18899;SDS011;9582;52.018;6.306;2023-04-25T01:27:45;8.63;;;3.60;;
18899;SDS011;9582;52.018;6.306;2023-04-25T01:30:13;10.43;;;3.50;;
18899;SDS011;9582;52.018;6.306;2023-04-25T01:32:41;9.17;;;3.67;;
18899;SDS011;9582;52.018;6.306;2023-04-25T01:35:08;10.90;;;3.63;;
18899;SDS011;9582;52.018;6.306;2023-04-25T01:37:36;14.43;;;3.97;;
18899;SDS011;9582;52.018;6.306;2023-04-25T01:40:05;11.97;;;4.40;;
18899;SDS011;9582;52.018;6.306;2023-04-25T01:42:34;14.00;;;4.17;;
18899;SDS011;9582;52.018;6.306;2023-04-25T01:45:02;8.50;;;3.77;;
18899;SDS011;9582;52.018;6.306;2023-04-25T01:47:30;13.10;;;4.33;;
18899;SDS011;9582;52.018;6.306;2023-04-25T01:49:56;16.67;;;4.50;;
18899;SDS011;9582;52.018;6.306;2023-04-25T01:52:23;18.17;;;4.10;;
18899;SDS011;9582;52.018;6.306;2023-04-25T01:54:49;13.90;;;4.23;;
18899;SDS011;9582;52.018;6.306;2023-04-25T01:57:18;17.83;;;4.30;;
18899;SDS011;9582;52.018;6.306;2023-04-25T01:59:45;15.23;;;4.27;;
18899;SDS011;9582;52.018;6.306;2023-04-25T02:02:20;14.23;;;4.27;;
18899;SDS011;9582;52.018;6.306;2023-04-25T02:04:47;14.53;;;4.60;;
18899;SDS011;9582;52.018;6.306;2023-04-25T02:07:13;16.37;;;4.50;;
18899;SDS011;9582;52.018;6.306;2023-04-25T02:09:50;17.53;;;5.00;;
18899;SDS011;9582;52.018;6.306;2023-04-25T02:12:19;19.03;;;6.70;;
18899;SDS011;9582;52.018;6.306;2023-04-25T02:15:12;12.57;;;4.40;;
18899;SDS011;9582;52.018;6.306;2023-04-25T02:17:43;17.63;;;4.60;;
18899;SDS011;9582;52.018;6.306;2023-04-25T02:20:10;14.30;;;3.97;;
18899;SDS011;9582;52.018;6.306;2023-04-25T02:22:38;17.33;;;4.00;;
18899;SDS011;9582;52.018;6.306;2023-04-25T02:25:05;13.63;;;4.03;;
18899;SDS011;9582;52.018;6.306;2023-04-25T02:27:36;14.37;;;3.73;;
18899;SDS011;9582;52.018;6.306;2023-04-25T02:30:03;10.23;;;4.33;;
18899;SDS011;9582;52.018;6.306;2023-04-25T02:32:32;15.13;;;4.47;;
18899;SDS011;9582;52.018;6.306;2023-04-25T02:35:01;14.53;;;4.60;;
18899;SDS011;9582;52.018;6.306;2023-04-25T02:37:29;14.03;;;4.47;;
18899;SDS011;9582;52.018;6.306;2023-04-25T02:39:55;15.13;;;4.10;;
18899;SDS011;9582;52.018;6.306;2023-04-25T02:42:22;19.17;;;4.60;;
18899;SDS011;9582;52.018;6.306;2023-04-25T02:44:50;14.57;;;4.37;;
18899;SDS011;9582;52.018;6.306;2023-04-25T02:47:16;17.87;;;4.50;;
18899;SDS011;9582;52.018;6.306;2023-04-25T02:49:43;13.03;;;4.00;;
18899;SDS011;9582;52.018;6.306;2023-04-25T02:52:10;15.83;;;4.73;;
18899;SDS011;9582;52.018;6.306;2023-04-25T02:54:37;10.73;;;4.50;;
18899;SDS011;9582;52.018;6.306;2023-04-25T02:57:04;16.57;;;4.53;;
18899;SDS011;9582;52.018;6.306;2023-04-25T02:59:34;16.63;;;4.67;;
18899;SDS011;9582;52.018;6.306;2023-04-25T03:02:02;13.73;;;4.83;;
18899;SDS011;9582;52.018;6.306;2023-04-25T03:04:29;15.60;;;5.00;;
18899;SDS011;9582;52.018;6.306;2023-04-25T03:06:56;16.00;;;4.67;;
18899;SDS011;9582;52.018;6.306;2023-04-25T03:09:22;16.23;;;4.57;;
18899;SDS011;9582;52.018;6.306;2023-04-25T03:11:50;13.60;;;4.40;;
18899;SDS011;9582;52.018;6.306;2023-04-25T03:14:17;17.90;;;4.43;;
18899;SDS011;9582;52.018;6.306;2023-04-25T03:16:44;15.47;;;4.17;;
18899;SDS011;9582;52.018;6.306;2023-04-25T03:19:12;10.33;;;3.40;;
18899;SDS011;9582;52.018;6.306;2023-04-25T03:21:40;13.07;;;3.80;;
18899;SDS011;9582;52.018;6.306;2023-04-25T03:24:07;12.10;;;4.10;;
18899;SDS011;9582;52.018;6.306;2023-04-25T03:26:33;13.60;;;3.83;;
18899;SDS011;9582;52.018;6.306;2023-04-25T03:29:00;12.23;;;4.00;;
18899;SDS011;9582;52.018;6.306;2023-04-25T03:31:27;14.23;;;3.83;;
18899;SDS011;9582;52.018;6.306;2023-04-25T03:33:53;14.33;;;3.50;;
18899;SDS011;9582;52.018;6.306;2023-04-25T03:36:22;13.13;;;3.80;;
18899;SDS011;9582;52.018;6.306;2023-04-25T03:38:49;12.53;;;3.97;;
18899;SDS011;9582;52.018;6.306;2023-04-25T03:41:17;12.57;;;3.43;;
18899;SDS011;9582;52.018;6.306;2023-04-25T03:43:47;15.13;;;3.80;;
18899;SDS011;9582;52.018;6.306;2023-04-25T03:46:15;13.00;;;3.70;;
18899;SDS011;9582;52.018;6.306;2023-04-25T03:48:41;15.50;;;4.10;;
18899;SDS011;9582;52.018;6.306;2023-04-25T03:51:12;12.70;;;3.80;;
18899;SDS011;9582;52.018;6.306;2023-04-25T03:53:43;16.77;;;4.10;;
18899;SDS011;9582;52.018;6.306;2023-04-25T03:56:18;13.77;;;3.67;;
18899;SDS011;9582;52.018;6.306;2023-04-25T03:58:49;10.80;;;3.90;;
18899;SDS011;9582;52.018;6.306;2023-04-25T04:01:18;11.60;;;4.47;;
18899;SDS011;9582;52.018;6.306;2023-04-25T04:03:46;12.33;;;4.80;;
18899;SDS011;9582;52.018;6.306;2023-04-25T04:06:12;15.27;;;4.03;;
18899;SDS011;9582;52.018;6.306;2023-04-25T04:08:44;12.63;;;4.17;;
18899;SDS011;9582;52.018;6.306;2023-04-25T04:11:11;10.73;;;3.60;;
18899;SDS011;9582;52.018;6.306;2023-04-25T04:13:37;10.20;;;4.57;;
18899;SDS011;9582;52.018;6.306;2023-04-25T04:16:05;13.80;;;4.17;;
18899;SDS011;9582;52.018;6.306;2023-04-25T04:18:32;13.67;;;4.10;;
18899;SDS011;9582;52.018;6.306;2023-04-25T04:20:58;12.17;;;3.70;;
18899;SDS011;9582;52.018;6.306;2023-04-25T04:23:28;11.30;;;4.10;;
18899;SDS011;9582;52.018;6.306;2023-04-25T04:25:57;8.23;;;3.77;;
18899;SDS011;9582;52.018;6.306;2023-04-25T04:28:47;13.63;;;4.20;;
18899;SDS011;9582;52.018;6.306;2023-04-25T04:31:37;17.33;;;4.20;;
18899;SDS011;9582;52.018;6.306;2023-04-25T04:34:05;7.83;;;3.23;;
18899;SDS011;9582;52.018;6.306;2023-04-25T04:36:32;10.87;;;3.57;;
18899;SDS011;9582;52.018;6.306;2023-04-25T04:38:59;10.93;;;4.07;;
18899;SDS011;9582;52.018;6.306;2023-04-25T04:41:37;13.07;;;3.43;;
18899;SDS011;9582;52.018;6.306;2023-04-25T04:44:10;10.53;;;3.23;;
18899;SDS011;9582;52.018;6.306;2023-04-25T04:46:44;4.40;;;2.10;;
18899;SDS011;9582;52.018;6.306;2023-04-25T04:49:34;8.33;;;2.60;;
18899;SDS011;9582;52.018;6.306;2023-04-25T04:52:17;9.13;;;2.90;;
18899;SDS011;9582;52.018;6.306;2023-04-25T04:54:53;10.43;;;3.53;;
18899;SDS011;9582;52.018;6.306;2023-04-25T04:57:35;14.10;;;3.67;;
18899;SDS011;9582;52.018;6.306;2023-04-25T05:00:11;7.47;;;3.27;;
18899;SDS011;9582;52.018;6.306;2023-04-25T05:02:44;6.50;;;2.87;;
18899;SDS011;9582;52.018;6.306;2023-04-25T05:05:29;12.97;;;2.93;;
18899;SDS011;9582;52.018;6.306;2023-04-25T05:08:16;14.27;;;3.27;;
18899;SDS011;9582;52.018;6.306;2023-04-25T05:11:18;9.27;;;2.63;;
18899;SDS011;9582;52.018;6.306;2023-04-25T05:14:04;5.93;;;3.00;;
18899;SDS011;9582;52.018;6.306;2023-04-25T05:16:45;11.13;;;3.40;;
18899;SDS011;9582;52.018;6.306;2023-04-25T05:19:31;14.83;;;3.30;;
18899;SDS011;9582;52.018;6.306;2023-04-25T05:22:19;10.93;;;3.40;;
18899;SDS011;9582;52.018;6.306;2023-04-25T05:25:09;11.47;;;4.07;;
18899;SDS011;9582;52.018;6.306;2023-04-25T05:27:49;10.90;;;3.27;;
18899;SDS011;9582;52.018;6.306;2023-04-25T05:30:42;9.57;;;3.57;;
18899;SDS011;9582;52.018;6.306;2023-04-25T05:33:13;12.10;;;4.03;;
18899;SDS011;9582;52.018;6.306;2023-04-25T05:35:41;12.33;;;4.00;;
18899;SDS011;9582;52.018;6.306;2023-04-25T05:38:07;12.97;;;4.27;;
18899;SDS011;9582;52.018;6.306;2023-04-25T05:40:53;8.70;;;3.90;;
18899;SDS011;9582;52.018;6.306;2023-04-25T05:43:38;12.93;;;4.17;;
18899;SDS011;9582;52.018;6.306;2023-04-25T05:46:30;11.90;;;3.90;;
18899;SDS011;9582;52.018;6.306;2023-04-25T05:49:10;9.87;;;4.00;;
18899;SDS011;9582;52.018;6.306;2023-04-25T05:51:58;12.20;;;4.10;;
18899;SDS011;9582;52.018;6.306;2023-04-25T05:54:27;9.57;;;3.77;;
18899;SDS011;9582;52.018;6.306;2023-04-25T05:56:55;10.37;;;3.50;;
18899;SDS011;9582;52.018;6.306;2023-04-25T05:59:22;11.77;;;3.60;;
18899;SDS011;9582;52.018;6.306;2023-04-25T06:01:50;11.83;;;3.83;;
18899;SDS011;9582;52.018;6.306;2023-04-25T06:04:17;8.97;;;3.10;;
18899;SDS011;9582;52.018;6.306;2023-04-25T06:06:44;8.63;;;3.00;;
18899;SDS011;9582;52.018;6.306;2023-04-25T06:09:10;7.40;;;2.90;;
18899;SDS011;9582;52.018;6.306;2023-04-25T06:11:37;8.07;;;2.53;;
18899;SDS011;9582;52.018;6.306;2023-04-25T06:14:04;4.47;;;2.00;;
18899;SDS011;9582;52.018;6.306;2023-04-25T06:16:32;6.00;;;2.00;;
18899;SDS011;9582;52.018;6.306;2023-04-25T06:19:00;6.17;;;2.27;;
18899;SDS011;9582;52.018;6.306;2023-04-25T06:21:27;5.53;;;2.10;;
18899;SDS011;9582;52.018;6.306;2023-04-25T06:23:53;4.80;;;1.97;;
18899;SDS011;9582;52.018;6.306;2023-04-25T06:26:22;5.73;;;1.50;;
18899;SDS011;9582;52.018;6.306;2023-04-25T06:28:48;4.53;;;1.80;;
18899;SDS011;9582;52.018;6.306;2023-04-25T06:31:15;5.03;;;1.60;;
18899;SDS011;9582;52.018;6.306;2023-04-25T06:33:44;4.90;;;1.60;;
18899;SDS011;9582;52.018;6.306;2023-04-25T06:36:11;6.27;;;1.87;;
18899;SDS011;9582;52.018;6.306;2023-04-25T06:38:39;7.67;;;2.20;;
18899;SDS011;9582;52.018;6.306;2023-04-25T06:41:05;3.07;;;1.60;;
18899;SDS011;9582;52.018;6.306;2023-04-25T06:43:34;7.43;;;1.80;;
18899;SDS011;9582;52.018;6.306;2023-04-25T06:46:30;3.37;;;1.40;;
18899;SDS011;9582;52.018;6.306;2023-04-25T06:48:58;7.20;;;2.17;;
18899;SDS011;9582;52.018;6.306;2023-04-25T06:51:26;4.30;;;1.60;;
18899;SDS011;9582;52.018;6.306;2023-04-25T06:53:54;5.30;;;1.77;;
18899;SDS011;9582;52.018;6.306;2023-04-25T06:56:27;4.30;;;1.80;;
18899;SDS011;9582;52.018;6.306;2023-04-25T06:59:03;7.67;;;2.20;;
18899;SDS011;9582;52.018;6.306;2023-04-25T07:01:38;7.33;;;2.17;;
18899;SDS011;9582;52.018;6.306;2023-04-25T07:04:10;5.53;;;1.50;;
18899;SDS011;9582;52.018;6.306;2023-04-25T07:06:43;6.83;;;1.73;;
18899;SDS011;9582;52.018;6.306;2023-04-25T07:09:10;6.73;;;2.07;;
18899;SDS011;9582;52.018;6.306;2023-04-25T07:11:38;7.43;;;1.73;;
18899;SDS011;9582;52.018;6.306;2023-04-25T07:14:04;7.03;;;1.73;;
18899;SDS011;9582;52.018;6.306;2023-04-25T07:16:32;6.70;;;2.10;;
18899;SDS011;9582;52.018;6.306;2023-04-25T07:18:59;7.87;;;1.93;;
18899;SDS011;9582;52.018;6.306;2023-04-25T07:21:26;5.53;;;1.97;;
18899;SDS011;9582;52.018;6.306;2023-04-25T07:23:55;8.50;;;1.93;;
18899;SDS011;9582;52.018;6.306;2023-04-25T07:26:27;5.50;;;2.00;;
18899;SDS011;9582;52.018;6.306;2023-04-25T07:29:12;7.50;;;1.60;;
18899;SDS011;9582;52.018;6.306;2023-04-25T07:31:38;10.17;;;2.97;;
18899;SDS011;9582;52.018;6.306;2023-04-25T07:34:05;4.13;;;1.63;;
18899;SDS011;9582;52.018;6.306;2023-04-25T07:36:32;11.13;;;2.00;;
18899;SDS011;9582;52.018;6.306;2023-04-25T07:39:00;6.77;;;1.60;;
18899;SDS011;9582;52.018;6.306;2023-04-25T07:41:27;3.40;;;1.30;;
18899;SDS011;9582;52.018;6.306;2023-04-25T07:43:53;5.50;;;1.60;;
18899;SDS011;9582;52.018;6.306;2023-04-25T07:46:20;6.77;;;2.07;;
18899;SDS011;9582;52.018;6.306;2023-04-25T07:48:47;6.47;;;1.70;;
18899;SDS011;9582;52.018;6.306;2023-04-25T07:51:13;6.47;;;2.20;;
18899;SDS011;9582;52.018;6.306;2023-04-25T07:53:40;8.10;;;2.07;;
18899;SDS011;9582;52.018;6.306;2023-04-25T07:56:12;6.47;;;2.20;;
18899;SDS011;9582;52.018;6.306;2023-04-25T07:58:41;7.77;;;1.80;;
18899;SDS011;9582;52.018;6.306;2023-04-25T08:01:11;3.80;;;1.50;;
18899;SDS011;9582;52.018;6.306;2023-04-25T08:03:59;9.00;;;1.63;;
18899;SDS011;9582;52.018;6.306;2023-04-25T08:06:42;7.10;;;1.87;;
18899;SDS011;9582;52.018;6.306;2023-04-25T08:09:15;5.53;;;1.87;;
18899;SDS011;9582;52.018;6.306;2023-04-25T08:11:43;9.33;;;2.10;;
18899;SDS011;9582;52.018;6.306;2023-04-25T08:14:13;6.17;;;1.87;;
18899;SDS011;9582;52.018;6.306;2023-04-25T08:16:42;7.87;;;1.73;;
18899;SDS011;9582;52.018;6.306;2023-04-25T08:19:09;7.33;;;2.00;;
18899;SDS011;9582;52.018;6.306;2023-04-25T08:21:36;8.43;;;1.83;;
18899;SDS011;9582;52.018;6.306;2023-04-25T08:24:06;7.83;;;2.27;;
18899;SDS011;9582;52.018;6.306;2023-04-25T08:26:36;4.83;;;1.50;;
18899;SDS011;9582;52.018;6.306;2023-04-25T08:29:06;8.17;;;1.80;;
18899;SDS011;9582;52.018;6.306;2023-04-25T08:31:36;4.80;;;1.40;;
18899;SDS011;9582;52.018;6.306;2023-04-25T08:34:04;7.20;;;1.90;;
18899;SDS011;9582;52.018;6.306;2023-04-25T08:36:38;4.03;;;1.20;;
18899;SDS011;9582;52.018;6.306;2023-04-25T08:39:17;6.13;;;1.40;;
18899;SDS011;9582;52.018;6.306;2023-04-25T08:42:00;0.80;;;0.50;;
18899;SDS011;9582;52.018;6.306;2023-04-25T08:44:30;1.87;;;0.90;;
18899;SDS011;9582;52.018;6.306;2023-04-25T08:46:56;2.57;;;0.90;;
18899;SDS011;9582;52.018;6.306;2023-04-25T08:49:30;1.57;;;0.83;;
18899;SDS011;9582;52.018;6.306;2023-04-25T08:51:59;1.80;;;0.90;;
18899;SDS011;9582;52.018;6.306;2023-04-25T08:54:27;4.00;;;1.00;;
18899;SDS011;9582;52.018;6.306;2023-04-25T08:56:56;1.03;;;0.73;;
18899;SDS011;9582;52.018;6.306;2023-04-25T08:59:23;2.47;;;0.90;;
18899;SDS011;9582;52.018;6.306;2023-04-25T09:01:52;1.57;;;0.87;;
18899;SDS011;9582;52.018;6.306;2023-04-25T09:04:20;2.53;;;0.80;;
18899;SDS011;9582;52.018;6.306;2023-04-25T09:06:48;1.63;;;0.80;;
18899;SDS011;9582;52.018;6.306;2023-04-25T09:09:14;3.30;;;1.33;;
18899;SDS011;9582;52.018;6.306;2023-04-25T09:11:43;4.80;;;1.53;;
18899;SDS011;9582;52.018;6.306;2023-04-25T09:14:12;3.80;;;1.10;;
18899;SDS011;9582;52.018;6.306;2023-04-25T09:17:01;2.27;;;1.00;;
18899;SDS011;9582;52.018;6.306;2023-04-25T09:19:51;4.43;;;1.30;;
18899;SDS011;9582;52.018;6.306;2023-04-25T09:22:25;5.50;;;1.30;;
18899;SDS011;9582;52.018;6.306;2023-04-25T09:24:52;7.00;;;1.47;;
18899;SDS011;9582;52.018;6.306;2023-04-25T09:27:21;4.60;;;1.37;;
18899;SDS011;9582;52.018;6.306;2023-04-25T09:29:56;2.17;;;1.30;;
18899;SDS011;9582;52.018;6.306;2023-04-25T09:32:26;2.63;;;1.23;;
18899;SDS011;9582;52.018;6.306;2023-04-25T09:34:55;4.37;;;1.37;;
18899;SDS011;9582;52.018;6.306;2023-04-25T09:37:23;6.67;;;1.50;;
18899;SDS011;9582;52.018;6.306;2023-04-25T09:40:13;5.93;;;1.50;;
18899;SDS011;9582;52.018;6.306;2023-04-25T09:42:51;4.03;;;1.80;;
18899;SDS011;9582;52.018;6.306;2023-04-25T09:45:18;4.83;;;1.67;;
18899;SDS011;9582;52.018;6.306;2023-04-25T09:47:46;6.23;;;1.60;;
18899;SDS011;9582;52.018;6.306;2023-04-25T09:50:20;3.53;;;1.30;;
18899;SDS011;9582;52.018;6.306;2023-04-25T09:53:02;5.27;;;2.07;;
18899;SDS011;9582;52.018;6.306;2023-04-25T09:55:31;7.43;;;1.57;;
18899;SDS011;9582;52.018;6.306;2023-04-25T09:58:00;3.63;;;1.20;;
18899;SDS011;9582;52.018;6.306;2023-04-25T10:00:30;7.03;;;2.03;;
18899;SDS011;9582;52.018;6.306;2023-04-25T10:03:07;5.87;;;1.73;;
18899;SDS011;9582;52.018;6.306;2023-04-25T10:06:12;2.73;;;0.90;;
18899;SDS011;9582;52.018;6.306;2023-04-25T10:08:43;1.77;;;0.80;;
18899;SDS011;9582;52.018;6.306;2023-04-25T10:11:10;1.37;;;0.77;;
18899;SDS011;9582;52.018;6.306;2023-04-25T10:13:39;2.17;;;0.67;;
18899;SDS011;9582;52.018;6.306;2023-04-25T10:16:07;3.40;;;0.83;;
18899;SDS011;9582;52.018;6.306;2023-04-25T10:18:35;6.50;;;1.27;;
18899;SDS011;9582;52.018;6.306;2023-04-25T10:21:03;2.20;;;0.80;;
18899;SDS011;9582;52.018;6.306;2023-04-25T10:23:31;3.63;;;0.93;;
18899;SDS011;9582;52.018;6.306;2023-04-25T10:25:59;3.83;;;1.10;;
18899;SDS011;9582;52.018;6.306;2023-04-25T10:28:26;4.37;;;1.03;;
18899;SDS011;9582;52.018;6.306;2023-04-25T10:30:56;2.90;;;0.93;;
18899;SDS011;9582;52.018;6.306;2023-04-25T10:33:29;3.33;;;1.57;;
18899;SDS011;9582;52.018;6.306;2023-04-25T10:35:59;4.77;;;1.20;;
18899;SDS011;9582;52.018;6.306;2023-04-25T10:38:35;3.50;;;0.90;;
18899;SDS011;9582;52.018;6.306;2023-04-25T10:41:02;5.83;;;1.07;;
18899;SDS011;9582;52.018;6.306;2023-04-25T10:43:34;4.67;;;1.03;;
18899;SDS011;9582;52.018;6.306;2023-04-25T10:46:02;4.63;;;1.47;;
18899;SDS011;9582;52.018;6.306;2023-04-25T10:48:38;3.63;;;1.47;;
18899;SDS011;9582;52.018;6.306;2023-04-25T10:51:17;5.07;;;1.57;;
18899;SDS011;9582;52.018;6.306;2023-04-25T10:53:45;3.50;;;1.10;;
18899;SDS011;9582;52.018;6.306;2023-04-25T10:56:16;3.97;;;1.00;;
18899;SDS011;9582;52.018;6.306;2023-04-25T10:58:44;6.63;;;1.70;;
18899;SDS011;9582;52.018;6.306;2023-04-25T11:01:11;3.67;;;1.00;;
18899;SDS011;9582;52.018;6.306;2023-04-25T11:03:43;3.63;;;0.90;;
18899;SDS011;9582;52.018;6.306;2023-04-25T11:06:15;2.47;;;0.97;;
18899;SDS011;9582;52.018;6.306;2023-04-25T11:08:48;4.53;;;1.43;;
18899;SDS011;9582;52.018;6.306;2023-04-25T11:11:16;4.30;;;1.00;;
18899;SDS011;9582;52.018;6.306;2023-04-25T11:13:43;4.47;;;1.30;;
18899;SDS011;9582;52.018;6.306;2023-04-25T11:16:10;4.40;;;1.07;;
18899;SDS011;9582;52.018;6.306;2023-04-25T11:18:36;3.80;;;1.40;;
18899;SDS011;9582;52.018;6.306;2023-04-25T11:21:03;3.30;;;1.40;;
18899;SDS011;9582;52.018;6.306;2023-04-25T11:23:31;3.90;;;1.37;;
18899;SDS011;9582;52.018;6.306;2023-04-25T11:25:58;2.30;;;1.10;;
18899;SDS011;9582;52.018;6.306;2023-04-25T11:28:26;4.57;;;1.30;;
18899;SDS011;9582;52.018;6.306;2023-04-25T11:30:52;3.90;;;1.10;;
18899;SDS011;9582;52.018;6.306;2023-04-25T11:33:22;8.00;;;1.93;;
18899;SDS011;9582;52.018;6.306;2023-04-25T11:35:50;3.93;;;1.10;;
18899;SDS011;9582;52.018;6.306;2023-04-25T11:38:17;2.47;;;1.03;;
18899;SDS011;9582;52.018;6.306;2023-04-25T11:40:44;4.03;;;1.20;;
18899;SDS011;9582;52.018;6.306;2023-04-25T11:43:15;1.27;;;0.93;;
18899;SDS011;9582;52.018;6.306;2023-04-25T11:45:45;4.47;;;1.00;;
18899;SDS011;9582;52.018;6.306;2023-04-25T11:48:12;2.80;;;1.33;;
18899;SDS011;9582;52.018;6.306;2023-04-25T11:50:39;3.30;;;1.20;;
18899;SDS011;9582;52.018;6.306;2023-04-25T11:53:05;5.33;;;1.20;;
18899;SDS011;9582;52.018;6.306;2023-04-25T11:55:33;3.90;;;1.47;;
18899;SDS011;9582;52.018;6.306;2023-04-25T11:58:03;2.20;;;1.00;;
18899;SDS011;9582;52.018;6.306;2023-04-25T12:00:30;4.07;;;1.00;;
18899;SDS011;9582;52.018;6.306;2023-04-25T12:02:58;2.70;;;0.87;;
18899;SDS011;9582;52.018;6.306;2023-04-25T12:05:25;5.53;;;1.30;;
18899;SDS011;9582;52.018;6.306;2023-04-25T12:07:53;3.10;;;1.07;;
18899;SDS011;9582;52.018;6.306;2023-04-25T12:10:19;6.47;;;1.30;;
18899;SDS011;9582;52.018;6.306;2023-04-25T12:12:47;4.03;;;1.20;;
18899;SDS011;9582;52.018;6.306;2023-04-25T12:15:16;3.40;;;1.00;;
18899;SDS011;9582;52.018;6.306;2023-04-25T12:17:45;3.70;;;1.10;;
18899;SDS011;9582;52.018;6.306;2023-04-25T12:20:12;6.17;;;1.60;;
18899;SDS011;9582;52.018;6.306;2023-04-25T12:22:40;4.77;;;1.03;;
18899;SDS011;9582;52.018;6.306;2023-04-25T12:25:10;3.33;;;1.30;;
18899;SDS011;9582;52.018;6.306;2023-04-25T12:27:37;4.33;;;1.17;;
18899;SDS011;9582;52.018;6.306;2023-04-25T12:30:05;3.47;;;1.30;;
18899;SDS011;9582;52.018;6.306;2023-04-25T12:32:34;3.93;;;1.33;;
18899;SDS011;9582;52.018;6.306;2023-04-25T12:35:01;2.57;;;1.00;;
18899;SDS011;9582;52.018;6.306;2023-04-25T12:37:28;7.77;;;1.30;;
18899;SDS011;9582;52.018;6.306;2023-04-25T12:39:55;3.40;;;1.00;;
18899;SDS011;9582;52.018;6.306;2023-04-25T12:42:22;2.97;;;1.13;;
18899;SDS011;9582;52.018;6.306;2023-04-25T12:44:48;3.53;;;1.00;;
18899;SDS011;9582;52.018;6.306;2023-04-25T12:47:15;1.20;;;1.00;;
18899;SDS011;9582;52.018;6.306;2023-04-25T12:49:43;2.97;;;1.10;;
18899;SDS011;9582;52.018;6.306;2023-04-25T12:52:09;3.97;;;1.30;;
18899;SDS011;9582;52.018;6.306;2023-04-25T12:54:36;5.97;;;1.37;;
18899;SDS011;9582;52.018;6.306;2023-04-25T12:57:03;6.03;;;1.37;;
18899;SDS011;9582;52.018;6.306;2023-04-25T12:59:30;3.67;;;1.20;;
18899;SDS011;9582;52.018;6.306;2023-04-25T13:01:56;5.70;;;1.30;;
18899;SDS011;9582;52.018;6.306;2023-04-25T13:04:23;5.67;;;1.47;;
18899;SDS011;9582;52.018;6.306;2023-04-25T13:06:50;4.17;;;1.30;;
18899;SDS011;9582;52.018;6.306;2023-04-25T13:09:17;2.23;;;1.10;;
18899;SDS011;9582;52.018;6.306;2023-04-25T13:11:43;6.00;;;1.17;;
18899;SDS011;9582;52.018;6.306;2023-04-25T13:14:11;1.90;;;1.10;;
18899;SDS011;9582;52.018;6.306;2023-04-25T13:16:37;4.07;;;1.30;;
18899;SDS011;9582;52.018;6.306;2023-04-25T13:19:04;4.53;;;1.27;;
18899;SDS011;9582;52.018;6.306;2023-04-25T13:21:32;4.67;;;1.03;;
18899;SDS011;9582;52.018;6.306;2023-04-25T13:24:00;3.13;;;1.10;;
18899;SDS011;9582;52.018;6.306;2023-04-25T13:26:26;1.60;;;0.80;;
18899;SDS011;9582;52.018;6.306;2023-04-25T13:28:53;3.47;;;1.40;;
18899;SDS011;9582;52.018;6.306;2023-04-25T13:31:19;3.77;;;1.30;;
18899;SDS011;9582;52.018;6.306;2023-04-25T13:33:46;2.97;;;0.73;;
18899;SDS011;9582;52.018;6.306;2023-04-25T13:36:12;3.00;;;0.90;;
18899;SDS011;9582;52.018;6.306;2023-04-25T13:38:39;1.97;;;1.00;;
18899;SDS011;9582;52.018;6.306;2023-04-25T13:41:10;1.67;;;1.00;;
18899;SDS011;9582;52.018;6.306;2023-04-25T13:43:42;3.23;;;1.10;;
18899;SDS011;9582;52.018;6.306;2023-04-25T13:46:09;4.70;;;0.90;;
18899;SDS011;9582;52.018;6.306;2023-04-25T13:48:37;2.20;;;0.90;;
18899;SDS011;9582;52.018;6.306;2023-04-25T13:51:04;2.87;;;1.10;;
18899;SDS011;9582;52.018;6.306;2023-04-25T13:53:31;4.40;;;1.17;;
18899;SDS011;9582;52.018;6.306;2023-04-25T13:55:57;5.93;;;1.33;;
18899;SDS011;9582;52.018;6.306;2023-04-25T13:58:25;4.57;;;1.00;;
18899;SDS011;9582;52.018;6.306;2023-04-25T14:00:52;5.23;;;1.37;;
18899;SDS011;9582;52.018;6.306;2023-04-25T14:03:18;3.13;;;1.30;;
18899;SDS011;9582;52.018;6.306;2023-04-25T14:05:45;2.93;;;1.37;;
18899;SDS011;9582;52.018;6.306;2023-04-25T14:08:11;7.37;;;1.27;;
18899;SDS011;9582;52.018;6.306;2023-04-25T14:10:38;5.80;;;1.47;;
18899;SDS011;9582;52.018;6.306;2023-04-25T14:13:05;3.27;;;1.00;;
18899;SDS011;9582;52.018;6.306;2023-04-25T14:15:33;2.50;;;1.03;;
18899;SDS011;9582;52.018;6.306;2023-04-25T14:18:00;3.60;;;1.20;;
18899;SDS011;9582;52.018;6.306;2023-04-25T14:20:27;3.17;;;1.10;;
18899;SDS011;9582;52.018;6.306;2023-04-25T14:22:54;3.80;;;1.07;;
18899;SDS011;9582;52.018;6.306;2023-04-25T14:25:21;2.93;;;1.13;;
18899;SDS011;9582;52.018;6.306;2023-04-25T14:27:47;4.90;;;1.17;;
18899;SDS011;9582;52.018;6.306;2023-04-25T14:30:15;5.43;;;1.40;;
18899;SDS011;9582;52.018;6.306;2023-04-25T14:32:43;2.50;;;1.40;;
18899;SDS011;9582;52.018;6.306;2023-04-25T14:35:10;2.13;;;0.80;;
18899;SDS011;9582;52.018;6.306;2023-04-25T14:37:37;5.07;;;1.30;;
18899;SDS011;9582;52.018;6.306;2023-04-25T14:40:04;4.97;;;1.10;;
18899;SDS011;9582;52.018;6.306;2023-04-25T14:42:32;3.73;;;1.20;;
18899;SDS011;9582;52.018;6.306;2023-04-25T14:44:59;1.97;;;1.10;;
18899;SDS011;9582;52.018;6.306;2023-04-25T14:47:25;4.67;;;1.20;;
18899;SDS011;9582;52.018;6.306;2023-04-25T14:49:53;2.57;;;1.10;;
18899;SDS011;9582;52.018;6.306;2023-04-25T14:52:20;6.33;;;1.27;;
18899;SDS011;9582;52.018;6.306;2023-04-25T14:54:46;1.50;;;1.07;;
18899;SDS011;9582;52.018;6.306;2023-04-25T14:57:13;3.97;;;1.20;;
18899;SDS011;9582;52.018;6.306;2023-04-25T14:59:39;3.07;;;1.17;;
18899;SDS011;9582;52.018;6.306;2023-04-25T15:02:06;5.13;;;1.50;;
18899;SDS011;9582;52.018;6.306;2023-04-25T15:04:32;3.60;;;1.40;;
18899;SDS011;9582;52.018;6.306;2023-04-25T15:07:01;3.13;;;0.90;;
18899;SDS011;9582;52.018;6.306;2023-04-25T15:09:27;4.20;;;1.20;;
18899;SDS011;9582;52.018;6.306;2023-04-25T15:11:54;2.20;;;1.00;;
18899;SDS011;9582;52.018;6.306;2023-04-25T15:14:20;4.07;;;1.13;;